Time;durP1;ratioP1;P1;durP2;ratioP2;P2;SDS_P1;SDS_P2;PMS_P1;PMS_P2;Temp;Humidity;BMP_temperature;BMP_pressure;BME280_temperature;BME280_humidity;BME280_pressure;Samples;Min_cycle;Max_cycle;Signal;HPM_P1;HPM_P2
2022/03/17 00:01:46;;;;;;;50.30;30.93;;;6.10;65.60;;;;;;5031217;28;46706;-64
2022/03/17 00:04:12;;;;;;;49.60;30.30;;;6.10;65.50;;;;;;5035330;28;46343;-65
2022/03/17 00:06:37;;;;;;;43.43;28.70;;;6.10;65.60;;;;;;5033819;28;46473;-64
2022/03/17 00:09:04;;;;;;;52.50;31.40;;;6.10;65.60;;;;;;5030973;28;46387;-64
2022/03/17 00:11:31;;;;;;;50.60;31.27;;;6.10;65.40;;;;;;5028513;28;46279;-65
2022/03/17 00:13:56;;;;;;;54.53;32.33;;;6.00;65.60;;;;;;5031655;28;46322;-65
2022/03/17 00:16:22;;;;;;;54.70;31.13;;;6.00;65.70;;;;;;5032382;28;46426;-65
2022/03/17 00:18:48;;;;;;;55.23;32.37;;;6.00;65.60;;;;;;5028272;28;46378;-64
2022/03/17 00:21:13;;;;;;;54.33;34.00;;;6.10;65.40;;;;;;5035035;28;47310;-65
2022/03/17 00:23:39;;;;;;;53.30;32.43;;;6.10;65.30;;;;;;5034922;28;46516;-64
2022/03/17 00:26:05;;;;;;;52.67;31.87;;;6.10;65.20;;;;;;5032036;28;46567;-64
2022/03/17 00:28:30;;;;;;;56.70;33.27;;;6.10;65.00;;;;;;5032426;28;46496;-65
2022/03/17 00:30:56;;;;;;;50.77;31.13;;;6.10;65.20;;;;;;5034247;28;46035;-65
2022/03/17 00:33:22;;;;;;;57.97;33.67;;;6.10;65.40;;;;;;5029646;28;46297;-65
2022/03/17 00:35:47;;;;;;;48.90;30.83;;;6.00;65.50;;;;;;5035437;28;45787;-64
2022/03/17 00:38:16;;;;;;;49.90;31.87;;;6.10;65.80;;;;;;5030342;28;46320;-65
2022/03/17 00:40:44;;;;;;;54.73;31.63;;;6.00;65.80;;;;;;5030293;28;48160;-64
2022/03/17 00:43:12;;;;;;;50.57;31.27;;;6.00;65.80;;;;;;5029313;28;46436;-64
2022/03/17 00:45:38;;;;;;;48.40;29.80;;;6.00;66.00;;;;;;5033576;28;46357;-64
2022/03/17 00:48:05;;;;;;;50.83;29.43;;;5.90;66.00;;;;;;5029126;28;46331;-65
2022/03/17 00:50:30;;;;;;;46.57;29.30;;;5.90;66.10;;;;;;5032312;28;48093;-65
2022/03/17 00:52:56;;;;;;;55.93;30.17;;;5.90;66.20;;;;;;5031542;28;46383;-65
2022/03/17 00:55:22;;;;;;;50.77;30.30;;;5.90;66.10;;;;;;5033129;28;45784;-65
2022/03/17 00:57:49;;;;;;;49.20;30.70;;;5.90;65.90;;;;;;5027917;28;46401;-65
2022/03/17 01:00:16;;;;;;;47.30;30.50;;;5.90;65.90;;;;;;5025524;28;46491;-64
2022/03/17 01:02:46;;;;;;;51.00;30.53;;;5.90;66.10;;;;;;5032962;28;46341;-65
2022/03/17 01:05:12;;;;;;;49.97;29.17;;;5.90;66.30;;;;;;5036011;28;46489;-64
2022/03/17 01:07:38;;;;;;;45.73;28.87;;;5.90;66.20;;;;;;5034272;28;46367;-65
2022/03/17 01:10:09;;;;;;;50.90;30.73;;;5.90;66.10;;;;;;5031267;28;47171;-65
2022/03/17 01:12:35;;;;;;;49.63;29.60;;;5.90;66.10;;;;;;5030353;28;46453;-65
2022/03/17 01:15:02;;;;;;;48.67;30.00;;;5.80;66.10;;;;;;5032362;28;46292;-64
2022/03/17 01:17:28;;;;;;;44.60;27.80;;;5.80;66.00;;;;;;5030668;28;46616;-64
2022/03/17 01:19:54;;;;;;;55.47;31.23;;;5.80;66.00;;;;;;5026947;28;46463;-64
2022/03/17 01:22:21;;;;;;;53.27;29.43;;;5.80;65.90;;;;;;5027820;28;46533;-65
2022/03/17 01:24:48;;;;;;;49.30;30.77;;;5.80;66.10;;;;;;5026752;28;46312;-64
2022/03/17 01:27:13;;;;;;;51.50;30.27;;;5.90;65.90;;;;;;5023195;28;46416;-64
2022/03/17 01:29:41;;;;;;;48.37;29.10;;;5.90;65.90;;;;;;5027307;28;47238;-64
2022/03/17 01:32:07;;;;;;;51.13;31.53;;;6.00;65.90;;;;;;5032212;28;46277;-64
2022/03/17 01:34:33;;;;;;;49.33;30.20;;;5.90;65.80;;;;;;5033176;28;46403;-65
2022/03/17 01:36:59;;;;;;;48.40;29.77;;;5.90;65.60;;;;;;5030792;28;46609;-63
2022/03/17 01:39:25;;;;;;;53.17;29.47;;;5.90;65.40;;;;;;5031707;28;46159;-63
2022/03/17 01:41:50;;;;;;;51.73;28.90;;;5.90;65.50;;;;;;5029080;28;46564;-64
2022/03/17 01:44:16;;;;;;;44.67;27.63;;;5.90;65.40;;;;;;5029954;28;46457;-63
2022/03/17 01:49:26;;;;;;;41.30;27.00;;;5.90;65.20;;;;;;5026932;28;46431;-64
2022/03/17 01:51:51;;;;;;;51.40;29.13;;;5.90;65.10;;;;;;5025370;28;46356;-65
2022/03/17 01:54:19;;;;;;;49.73;28.93;;;5.90;65.10;;;;;;5025950;28;46441;-65
2022/03/17 01:56:46;;;;;;;51.27;30.20;;;5.90;65.30;;;;;;5031601;28;46448;-65
2022/03/17 01:59:12;;;;;;;49.47;28.00;;;5.90;65.20;;;;;;5031590;28;46370;-63
2022/03/17 02:01:38;;;;;;;50.73;30.13;;;5.90;65.30;;;;;;5032817;28;46482;-65
2022/03/17 02:04:05;;;;;;;51.20;29.00;;;5.80;65.40;;;;;;5028112;28;46474;-64
2022/03/17 02:06:31;;;;;;;50.30;28.40;;;5.80;65.50;;;;;;5028146;28;46344;-64
2022/03/17 02:08:57;;;;;;;47.40;28.27;;;5.80;65.50;;;;;;5032601;28;46582;-65
2022/03/17 02:14:07;;;;;;;43.50;26.00;;;5.80;65.60;;;;;;5024209;28;46433;-63
2022/03/17 02:16:32;;;;;;;49.77;27.03;;;5.70;65.50;;;;;;5037063;28;46408;-63
2022/03/17 02:18:59;;;;;;;48.53;28.57;;;5.70;65.70;;;;;;5036184;28;46424;-65
2022/03/17 02:21:25;;;;;;;44.97;28.00;;;5.70;65.60;;;;;;5032093;28;46390;-65
2022/03/17 02:26:37;;;;;;;46.40;28.77;;;5.80;65.20;;;;;;5030463;28;46448;-64
2022/03/17 02:29:02;;;;;;;43.53;27.87;;;5.80;65.20;;;;;;5031588;28;47640;-65
2022/03/17 02:31:28;;;;;;;44.53;26.40;;;5.80;65.30;;;;;;5031645;28;46374;-63
2022/03/17 02:33:54;;;;;;;45.07;26.43;;;5.80;65.30;;;;;;5033280;28;46563;-64
2022/03/17 02:36:20;;;;;;;53.13;29.17;;;5.80;65.20;;;;;;5031672;28;46585;-64
2022/03/17 02:38:47;;;;;;;47.17;27.80;;;5.80;65.10;;;;;;5030237;28;46470;-64
2022/03/17 02:41:21;;;;;;;46.10;27.13;;;5.80;65.10;;;;;;5032385;28;46543;-65
2022/03/17 02:43:52;;;;;;;43.77;27.67;;;5.80;64.80;;;;;;5034443;28;46696;-65
2022/03/17 02:46:19;;;;;;;46.80;27.70;;;5.80;64.90;;;;;;5033755;28;46422;-63
2022/03/17 02:48:45;;;;;;;46.13;27.10;;;5.80;64.90;;;;;;5033140;28;46439;-64
2022/03/17 02:51:11;;;;;;;43.30;26.53;;;5.70;65.10;;;;;;5032098;28;46387;-64
2022/03/17 02:53:37;;;;;;;46.40;27.53;;;5.70;65.10;;;;;;5032983;28;46474;-64
2022/03/17 02:56:02;;;;;;;47.07;27.67;;;5.70;65.30;;;;;;5031633;28;46366;-64
2022/03/17 02:58:29;;;;;;;45.40;28.57;;;5.60;65.30;;;;;;5029608;28;48082;-65
2022/03/17 03:00:55;;;;;;;43.47;26.30;;;5.70;65.10;;;;;;5029635;28;46235;-64
2022/03/17 03:03:21;;;;;;;45.93;27.17;;;5.70;65.00;;;;;;5031803;28;46429;-64
2022/03/17 03:05:46;;;;;;;48.70;26.97;;;5.70;64.90;;;;;;5030759;28;46465;-64
2022/03/17 03:08:13;;;;;;;45.63;27.17;;;5.70;64.90;;;;;;5030410;28;46417;-65
2022/03/17 03:10:38;;;;;;;46.30;27.67;;;5.70;64.70;;;;;;5027566;28;46456;-65
2022/03/17 03:13:04;;;;;;;44.20;27.03;;;5.80;64.70;;;;;;5024485;28;46520;-63
2022/03/17 03:15:30;;;;;;;49.50;28.27;;;5.80;64.50;;;;;;5029022;28;46558;-63
2022/03/17 03:17:55;;;;;;;47.97;27.90;;;5.80;64.10;;;;;;5025078;28;46545;-64
2022/03/17 03:20:21;;;;;;;44.23;26.83;;;5.80;64.10;;;;;;5024330;28;46457;-64
2022/03/17 03:22:47;;;;;;;45.90;27.23;;;5.80;64.10;;;;;;5026285;28;46922;-65
2022/03/17 03:25:13;;;;;;;43.23;27.23;;;5.70;64.30;;;;;;5028135;28;46514;-64
2022/03/17 03:27:44;;;;;;;48.90;29.23;;;5.80;64.40;;;;;;5028088;28;47132;-64
2022/03/17 03:30:13;;;;;;;43.70;26.87;;;5.80;64.20;;;;;;5029595;28;46412;-64
2022/03/17 03:32:44;;;;;;;48.30;29.20;;;5.70;64.20;;;;;;5031248;28;46461;-64
2022/03/17 03:37:55;;;;;;;46.40;28.73;;;5.80;64.40;;;;;;5025424;28;46877;-65
2022/03/17 03:40:21;;;;;;;52.87;28.93;;;5.60;64.60;;;;;;5027243;28;46017;-62
2022/03/17 03:42:47;;;;;;;50.07;27.70;;;5.50;64.70;;;;;;5028814;28;46805;-64
2022/03/17 03:45:13;;;;;;;46.90;27.90;;;5.70;64.80;;;;;;5028724;28;46520;-64
2022/03/17 03:47:38;;;;;;;43.50;28.10;;;5.50;64.60;;;;;;5028450;28;46993;-64
2022/03/17 03:50:05;;;;;;;47.50;28.93;;;5.50;64.80;;;;;;5036106;28;46401;-65
2022/03/17 03:52:30;;;;;;;46.73;27.77;;;5.50;64.80;;;;;;5037597;28;46350;-66
2022/03/17 03:54:56;;;;;;;43.30;27.20;;;5.50;64.70;;;;;;5034746;28;46232;-64
2022/03/17 03:57:21;;;;;;;42.97;26.00;;;5.50;64.60;;;;;;5032324;28;46274;-66
2022/03/17 03:59:47;;;;;;;45.17;26.40;;;5.50;64.80;;;;;;5034335;28;46366;-65
2022/03/17 04:02:13;;;;;;;46.70;27.70;;;5.30;65.10;;;;;;5032134;28;46298;-65
2022/03/17 04:04:40;;;;;;;46.90;26.93;;;5.30;64.80;;;;;;5031744;28;46363;-64
2022/03/17 04:07:10;;;;;;;48.13;29.40;;;5.40;64.80;;;;;;5028104;28;47113;-65
2022/03/17 04:09:39;;;;;;;46.23;27.37;;;5.40;64.50;;;;;;5028113;28;46619;-64
2022/03/17 04:12:07;;;;;;;47.13;26.53;;;5.40;64.40;;;;;;5027738;28;46408;-64
2022/03/17 04:14:33;;;;;;;44.70;28.60;;;5.50;64.30;;;;;;5024646;28;46471;-65
2022/03/17 04:16:59;;;;;;;49.50;28.07;;;5.50;64.40;;;;;;5026646;28;48199;-65
2022/03/17 04:19:26;;;;;;;42.40;27.07;;;5.40;64.50;;;;;;5032422;28;46756;-64
2022/03/17 04:21:51;;;;;;;52.10;29.20;;;5.30;65.00;;;;;;5034167;28;46370;-63
2022/03/17 04:24:18;;;;;;;45.57;27.60;;;5.30;65.00;;;;;;5035174;28;46828;-63
2022/03/17 04:26:44;;;;;;;53.27;29.20;;;5.40;64.80;;;;;;5031034;28;46415;-64
2022/03/17 04:29:10;;;;;;;53.33;32.20;;;5.30;64.80;;;;;;5030504;28;45862;-63
2022/03/17 04:31:38;;;;;;;58.67;32.23;;;5.20;65.20;;;;;;5034468;28;46367;-65
2022/03/17 04:34:04;;;;;;;54.00;30.73;;;5.20;66.40;;;;;;5035339;28;46672;-63
2022/03/17 04:36:31;;;;;;;60.67;36.47;;;5.30;65.00;;;;;;5027463;28;46943;-65
2022/03/17 04:38:57;;;;;;;55.80;32.10;;;5.30;64.80;;;;;;5029303;28;45927;-65
2022/03/17 04:41:22;;;;;;;55.33;32.33;;;5.30;64.70;;;;;;5031434;28;45779;-64
2022/03/17 04:43:49;;;;;;;54.73;30.60;;;5.20;65.00;;;;;;5032541;28;46448;-64
2022/03/17 04:46:14;;;;;;;55.63;31.70;;;5.20;65.20;;;;;;5032920;28;46408;-65
2022/03/17 04:48:41;;;;;;;67.40;36.40;;;5.10;65.20;;;;;;5030954;28;46395;-64
2022/03/17 04:51:07;;;;;;;56.80;33.63;;;5.00;65.30;;;;;;5030121;28;46497;-63
2022/03/17 04:53:33;;;;;;;52.50;30.87;;;5.00;65.30;;;;;;5029215;28;46391;-65
2022/03/17 04:56:06;;;;;;;54.90;31.50;;;5.10;65.20;;;;;;5032765;28;46377;-65
2022/03/17 04:58:33;;;;;;;50.30;30.10;;;5.10;65.10;;;;;;5032837;28;46497;-63
2022/03/17 05:01:00;;;;;;;51.83;30.30;;;5.20;64.80;;;;;;5026241;28;46586;-63
2022/03/17 05:03:27;;;;;;;56.20;31.33;;;5.20;64.80;;;;;;5033095;28;46358;-64
2022/03/17 05:05:53;;;;;;;50.50;30.20;;;5.20;64.90;;;;;;5033924;28;46469;-64
2022/03/17 05:08:19;;;;;;;64.17;38.37;;;5.20;65.00;;;;;;5028305;28;46331;-63
2022/03/17 05:10:47;;;;;;;59.07;34.43;;;5.10;65.00;;;;;;5030877;28;46409;-64
2022/03/17 05:13:13;;;;;;;63.57;37.03;;;5.10;64.90;;;;;;5030801;28;45919;-64
2022/03/17 05:15:39;;;;;;;57.83;34.07;;;5.10;65.00;;;;;;5029896;28;46360;-66
2022/03/17 05:18:06;;;;;;;55.30;32.42;;;5.00;65.20;;;;;;5029070;28;46344;-63
2022/03/17 05:20:34;;;;;;;56.30;32.57;;;5.10;65.10;;;;;;5028579;28;46477;-63
2022/03/17 05:22:59;;;;;;;50.60;31.13;;;5.10;64.90;;;;;;5033187;28;46361;-64
2022/03/17 05:25:25;;;;;;;50.30;29.60;;;5.20;64.70;;;;;;5030140;28;47346;-63
2022/03/17 05:27:51;;;;;;;49.70;29.17;;;5.20;64.70;;;;;;5029648;28;46393;-63
2022/03/17 05:30:18;;;;;;;48.77;29.33;;;5.20;66.00;;;;;;5034649;28;46379;-65
2022/03/17 05:32:45;;;;;;;50.80;30.10;;;5.20;64.90;;;;;;5032850;28;46494;-66
2022/03/17 05:35:11;;;;;;;55.00;30.80;;;5.30;64.60;;;;;;5031079;28;46442;-65
2022/03/17 05:37:37;;;;;;;45.73;28.63;;;5.40;64.40;;;;;;5029524;28;46323;-65
2022/03/17 05:40:14;;;;;;;52.30;30.40;;;5.40;64.20;;;;;;5030957;28;46357;-64
2022/03/17 05:42:48;;;;;;;49.20;29.63;;;5.40;65.20;;;;;;5030992;28;46553;-65
2022/03/17 05:45:15;;;;;;;50.67;28.80;;;5.40;64.10;;;;;;5030801;28;46699;-64
2022/03/17 05:47:46;;;;;;;52.17;28.80;;;5.40;64.10;;;;;;5024506;28;46592;-64
2022/03/17 05:50:14;;;;;;;47.97;28.90;;;5.40;64.20;;;;;;5027110;28;46429;-64
2022/03/17 05:52:42;;;;;;;48.77;29.37;;;5.40;64.20;;;;;;5030560;28;46473;-64
2022/03/17 05:55:09;;;;;;;48.70;29.50;;;5.50;64.10;;;;;;5030918;28;46951;-64
2022/03/17 05:57:39;;;;;;;50.17;29.53;;;5.50;64.30;;;;;;5029289;28;45769;-64
2022/03/17 06:00:06;;;;;;;56.70;29.53;;;5.50;64.40;;;;;;5030538;28;46492;-64
2022/03/17 06:02:34;;;;;;;45.00;27.60;;;5.60;64.10;;;;;;5028311;28;46272;-64
2022/03/17 06:05:00;;;;;;;45.17;26.70;;;5.70;63.90;;;;;;5029946;28;46373;-64
2022/03/17 06:07:34;;;;;;;47.20;28.27;;;5.70;63.60;;;;;;5025795;28;46366;-63
2022/03/17 06:09:59;;;;;;;48.27;28.80;;;5.80;63.60;;;;;;5036661;28;46437;-64
2022/03/17 06:12:25;;;;;;;44.87;28.00;;;5.80;63.60;;;;;;5029028;28;46253;-65
2022/03/17 06:14:51;;;;;;;46.23;27.23;;;5.90;63.50;;;;;;5033232;28;46470;-64
2022/03/17 06:17:16;;;;;;;46.73;29.47;;;5.80;63.90;;;;;;5034355;28;46324;-64
2022/03/17 06:19:42;;;;;;;43.97;28.70;;;5.70;64.20;;;;;;5030630;28;46326;-64
2022/03/17 06:22:08;;;;;;;46.53;28.40;;;5.70;64.40;;;;;;5027710;28;46417;-65
2022/03/17 06:24:33;;;;;;;46.40;27.57;;;5.70;64.50;;;;;;5029595;28;46308;-65
2022/03/17 06:26:59;;;;;;;44.63;29.00;;;5.80;64.20;;;;;;5027349;28;46422;-64
2022/03/17 06:29:25;;;;;;;50.00;29.20;;;5.90;63.80;;;;;;5025160;28;46413;-64
2022/03/17 06:31:50;;;;;;;48.47;30.07;;;6.10;63.20;;;;;;5024986;28;46360;-65
2022/03/17 06:34:16;;;;;;;48.03;29.30;;;6.20;62.90;;;;;;5025983;28;47008;-65
2022/03/17 06:36:41;;;;;;;47.60;28.40;;;6.40;62.60;;;;;;5026173;28;46330;-64
2022/03/17 06:39:07;;;;;;;43.53;27.73;;;6.60;62.50;;;;;;5034344;28;46291;-65
2022/03/17 06:41:33;;;;;;;43.87;27.97;;;6.50;62.40;;;;;;5033299;28;46616;-66
2022/03/17 06:43:58;;;;;;;45.77;29.37;;;6.60;62.50;;;;;;5031148;28;46492;-63
2022/03/17 06:46:24;;;;;;;44.77;28.07;;;6.70;62.60;;;;;;5032297;28;46387;-64
2022/03/17 06:48:50;;;;;;;52.07;30.27;;;6.80;62.50;;;;;;5032989;28;46388;-65
2022/03/17 06:51:15;;;;;;;48.90;30.37;;;6.80;62.10;;;;;;5026767;28;45917;-64
2022/03/17 06:53:41;;;;;;;50.90;29.60;;;6.90;61.90;;;;;;5026769;28;46304;-64
2022/03/17 06:56:07;;;;;;;45.57;29.23;;;7.00;61.90;;;;;;5028807;28;46669;-66
2022/03/17 06:58:32;;;;;;;48.80;28.53;;;7.00;61.80;;;;;;5023749;28;46494;-64
2022/03/17 07:00:58;;;;;;;42.87;27.47;;;7.00;62.00;;;;;;5026152;28;45846;-62
2022/03/17 07:03:23;;;;;;;45.57;28.70;;;7.00;62.10;;;;;;5030272;28;46961;-62
2022/03/17 07:05:49;;;;;;;48.87;30.27;;;7.10;62.10;;;;;;5028857;28;46403;-62
2022/03/17 07:08:15;;;;;;;43.87;27.60;;;7.10;62.00;;;;;;5035798;28;46676;-64
2022/03/17 07:10:40;;;;;;;51.40;27.33;;;7.20;62.00;;;;;;5035159;28;46522;-63
2022/03/17 07:13:06;;;;;;;46.70;28.90;;;7.30;62.20;;;;;;5032878;28;47145;-62
2022/03/17 07:15:32;;;;;;;42.67;27.50;;;7.40;62.00;;;;;;5029548;28;46359;-64
2022/03/17 07:17:57;;;;;;;44.47;26.90;;;7.50;61.70;;;;;;5033747;28;46444;-65
2022/03/17 07:20:23;;;;;;;44.00;28.23;;;7.50;62.70;;;;;;5035202;28;46605;-65
2022/03/17 07:22:50;;;;;;;43.70;27.30;;;7.60;61.60;;;;;;5032391;28;47063;-66
2022/03/17 07:25:23;;;;;;;45.40;26.80;;;7.60;61.60;;;;;;5032295;28;46490;-64
2022/03/17 07:27:48;;;;;;;46.90;26.90;;;7.70;61.50;;;;;;5031243;28;46609;-64
2022/03/17 07:30:18;;;;;;;43.10;28.10;;;7.80;61.10;;;;;;5032348;28;46372;-64
2022/03/17 07:32:48;;;;;;;47.23;28.50;;;7.80;60.90;;;;;;5027956;28;46351;-63
2022/03/17 07:35:14;;;;;;;41.77;26.80;;;7.90;61.00;;;;;;5031010;28;46406;-63
2022/03/17 07:37:41;;;;;;;50.70;29.63;;;7.90;61.10;;;;;;5027605;28;46396;-64
2022/03/17 07:40:07;;;;;;;47.20;27.50;;;8.00;61.00;;;;;;5028378;28;46565;-63
2022/03/17 07:42:33;;;;;;;43.30;28.20;;;8.10;60.70;;;;;;5027069;28;47068;-64
2022/03/17 07:44:58;;;;;;;48.03;27.90;;;8.20;60.50;;;;;;5029949;28;45870;-63
2022/03/17 07:47:24;;;;;;;41.57;27.70;;;8.20;60.10;;;;;;5027123;28;46539;-64
2022/03/17 07:49:50;;;;;;;46.93;30.13;;;8.10;60.20;;;;;;5037037;28;46676;-64
2022/03/17 07:52:16;;;;;;;41.73;27.33;;;8.10;60.30;;;;;;5033237;28;46353;-64
2022/03/17 07:54:41;;;;;;;48.07;29.53;;;8.20;60.10;;;;;;5034535;28;46429;-64
2022/03/17 07:57:08;;;;;;;43.03;27.20;;;8.30;60.00;;;;;;5030713;28;46403;-65
2022/03/17 07:59:33;;;;;;;43.80;28.90;;;8.30;59.70;;;;;;5031473;28;46474;-65
2022/03/17 08:01:59;;;;;;;44.97;29.27;;;8.30;59.60;;;;;;5031749;28;45904;-64
2022/03/17 08:04:25;;;;;;;45.20;27.63;;;8.40;59.70;;;;;;5027993;28;46356;-67
2022/03/17 08:06:53;;;;;;;46.10;29.27;;;8.50;59.40;;;;;;5028411;28;46577;-63
2022/03/17 08:09:20;;;;;;;40.20;27.07;;;8.40;59.60;;;;;;5033498;28;46588;-64
2022/03/17 08:11:48;;;;;;;46.40;27.90;;;8.40;59.30;;;;;;5030228;28;46510;-64
2022/03/17 08:14:16;;;;;;;39.97;26.83;;;8.40;59.20;;;;;;5028612;28;46402;-65
2022/03/17 08:16:43;;;;;;;44.83;27.87;;;8.30;59.40;;;;;;5034164;28;45872;-64
2022/03/17 08:19:12;;;;;;;45.47;27.57;;;8.30;59.30;;;;;;5035124;28;45890;-65
2022/03/17 08:21:40;;;;;;;46.63;27.77;;;8.40;59.10;;;;;;5028109;28;47240;-64
2022/03/17 08:24:06;;;;;;;47.40;28.33;;;8.40;58.80;;;;;;5031066;28;46309;-65
2022/03/17 08:26:33;;;;;;;43.87;27.77;;;8.40;59.10;;;;;;5032762;28;46499;-63
2022/03/17 08:28:59;;;;;;;47.53;29.30;;;8.50;58.80;;;;;;5033994;28;46647;-65
2022/03/17 08:31:25;;;;;;;42.93;27.07;;;8.60;58.60;;;;;;5030467;28;46517;-65
2022/03/17 08:33:50;;;;;;;48.90;26.87;;;8.70;58.30;;;;;;5030267;28;46384;-64
2022/03/17 08:36:16;;;;;;;40.17;26.43;;;8.70;58.40;;;;;;5029978;28;46437;-65
2022/03/17 08:38:42;;;;;;;41.37;26.20;;;8.80;58.10;;;;;;5030372;28;45935;-64
2022/03/17 08:41:07;;;;;;;40.90;26.53;;;8.80;58.20;;;;;;5031378;28;48326;-64
2022/03/17 08:43:33;;;;;;;41.53;27.40;;;8.80;58.40;;;;;;5029029;28;46378;-66
2022/03/17 08:51:28;;;;;;;43.00;28.03;;;8.90;58.40;;;;;;5029257;28;46440;-64
2022/03/17 08:53:56;;;;;;;45.50;27.33;;;9.00;58.00;;;;;;5030569;28;45820;-65
2022/03/17 08:56:21;;;;;;;46.93;26.73;;;9.10;57.90;;;;;;5031509;28;45800;-64
2022/03/17 08:58:47;;;;;;;42.20;27.00;;;9.30;57.90;;;;;;5033856;28;46266;-64
2022/03/17 09:01:13;;;;;;;41.97;25.73;;;9.30;57.80;;;;;;5032634;28;46000;-63
2022/03/17 09:03:38;;;;;;;42.07;27.07;;;9.30;57.60;;;;;;5033003;28;46408;-65
2022/03/17 09:06:04;;;;;;;44.30;28.13;;;9.30;57.50;;;;;;5032057;28;46358;-65
2022/03/17 09:08:30;;;;;;;45.20;27.23;;;9.30;57.40;;;;;;5028808;28;46870;-66
2022/03/17 09:10:56;;;;;;;44.60;27.87;;;9.40;57.30;;;;;;5030052;28;46157;-64
2022/03/17 09:13:26;;;;;;;42.73;26.70;;;9.30;57.30;;;;;;5026129;28;46385;-65
2022/03/17 09:15:53;;;;;;;39.80;26.30;;;9.30;57.60;;;;;;5025232;28;46329;-64
2022/03/17 09:18:21;;;;;;;40.70;25.67;;;9.40;57.50;;;;;;5027925;28;46603;-66
2022/03/17 09:20:47;;;;;;;38.13;26.03;;;9.40;57.50;;;;;;5023446;28;46391;-66
2022/03/17 09:23:13;;;;;;;42.43;25.93;;;9.30;57.60;;;;;;5023476;28;46660;-63
2022/03/17 09:25:39;;;;;;;38.40;25.30;;;9.00;58.00;;;;;;5036581;28;46454;-64
2022/03/17 09:28:05;;;;;;;44.37;26.33;;;9.00;58.20;;;;;;5034006;28;46344;-64
2022/03/17 09:30:31;;;;;;;43.23;27.53;;;9.10;58.10;;;;;;5029051;28;47215;-65
2022/03/17 09:32:59;;;;;;;42.73;25.87;;;9.30;57.80;;;;;;5030127;28;46326;-65
2022/03/17 09:35:25;;;;;;;40.80;26.40;;;9.30;57.70;;;;;;5033863;28;46690;-64
2022/03/17 09:37:50;;;;;;;42.20;26.90;;;9.40;57.50;;;;;;5026950;28;46375;-65
2022/03/17 09:40:17;;;;;;;43.67;26.07;;;9.40;58.60;;;;;;5028827;28;46442;-66
2022/03/17 09:42:43;;;;;;;42.30;26.10;;;9.50;57.50;;;;;;5028339;28;46757;-64
2022/03/17 09:45:10;;;;;;;42.20;26.90;;;9.60;57.30;;;;;;5030540;28;46479;-65
2022/03/17 09:47:38;;;;;;;41.97;28.03;;;9.60;57.30;;;;;;5028532;28;46405;-65
2022/03/17 09:50:07;;;;;;;44.60;28.87;;;9.70;57.20;;;;;;5025133;28;47058;-65
2022/03/17 09:52:39;;;;;;;37.20;25.47;;;9.80;57.00;;;;;;5032761;28;46457;-65
2022/03/17 09:55:07;;;;;;;40.63;25.50;;;10.00;55.70;;;;;;5035989;28;45973;-66
2022/03/17 09:57:33;;;;;;;42.60;27.83;;;10.20;55.10;;;;;;5030955;28;46491;-65
2022/03/17 09:59:59;;;;;;;38.80;25.50;;;10.40;54.50;;;;;;5026953;28;47023;-65
2022/03/17 10:02:25;;;;;;;38.33;24.93;;;10.50;54.40;;;;;;5026150;28;46468;-66
2022/03/17 10:04:51;;;;;;;40.10;24.70;;;10.60;54.20;;;;;;5034920;28;46454;-65
2022/03/17 10:07:20;;;;;;;40.33;25.90;;;10.50;54.40;;;;;;5032196;28;46414;-65
2022/03/17 10:09:47;;;;;;;42.90;25.50;;;10.60;54.40;;;;;;5030919;28;46970;-66
2022/03/17 10:12:16;;;;;;;40.83;25.40;;;10.70;54.20;;;;;;5029755;28;46598;-64
2022/03/17 10:14:44;;;;;;;41.50;26.70;;;10.70;53.80;;;;;;5031994;28;46382;-63
2022/03/17 10:17:35;;;;;;;46.70;29.10;;;10.60;54.30;;;;;;5030114;28;46442;-65
2022/03/17 10:20:22;;;;;;;57.13;33.97;;;10.50;54.40;;;;;;5029902;28;46728;-63
2022/03/17 10:22:56;;;;;;;44.37;25.07;;;10.50;54.60;;;;;;5027116;28;46295;-64
2022/03/17 10:25:26;;;;;;;39.27;26.30;;;10.50;54.60;;;;;;5028863;28;46410;-64
2022/03/17 10:27:57;;;;;;;38.60;24.30;;;10.60;54.40;;;;;;5029452;28;46661;-63
2022/03/17 10:30:35;;;;;;;35.40;23.60;;;10.70;53.90;;;;;;5027895;28;46385;-64
2022/03/17 10:33:13;;;;;;;39.60;24.27;;;10.80;53.20;;;;;;5029079;28;46366;-63
2022/03/17 10:35:45;;;;;;;38.80;24.63;;;10.90;53.00;;;;;;5036094;28;46480;-65
2022/03/17 10:38:18;;;;;;;40.40;23.60;;;10.90;52.50;;;;;;5034347;28;45919;-63
2022/03/17 10:40:58;;;;;;;38.67;26.00;;;10.90;52.50;;;;;;5034597;28;46885;-63
2022/03/17 10:43:25;;;;;;;36.80;24.83;;;10.80;53.50;;;;;;5034218;28;46429;-64
2022/03/17 10:46:07;;;;;;;38.63;24.57;;;10.70;54.20;;;;;;5031360;28;46415;-64
2022/03/17 10:48:33;;;;;;;35.23;22.70;;;10.70;53.90;;;;;;5029536;28;46481;-65
2022/03/17 10:50:58;;;;;;;35.63;24.23;;;10.80;53.60;;;;;;5033538;28;46603;-65
2022/03/17 10:53:30;;;;;;;36.83;24.37;;;10.60;54.30;;;;;;5033734;28;46452;-65
2022/03/17 10:56:12;;;;;;;40.47;26.87;;;10.50;54.50;;;;;;5037394;28;46469;-65
2022/03/17 10:58:46;;;;;;;35.90;24.90;;;10.40;54.50;;;;;;5030791;28;46474;-65
2022/03/17 11:01:12;;;;;;;40.53;25.40;;;10.40;54.80;;;;;;5029626;28;46480;-64
2022/03/17 11:03:38;;;;;;;42.23;26.70;;;10.40;54.30;;;;;;5033312;28;46499;-64
2022/03/17 11:06:06;;;;;;;38.20;24.73;;;10.30;54.70;;;;;;5032186;28;46463;-64
2022/03/17 11:08:32;;;;;;;36.20;23.67;;;10.30;54.60;;;;;;5027899;28;46417;-65
2022/03/17 11:10:58;;;;;;;36.93;24.17;;;10.30;54.80;;;;;;5031583;28;47325;-63
2022/03/17 11:13:24;;;;;;;34.13;22.47;;;10.30;54.70;;;;;;5036372;28;46497;-64
2022/03/17 11:16:04;;;;;;;36.90;24.47;;;10.30;54.80;;;;;;5029735;28;46440;-64
2022/03/17 11:18:37;;;;;;;44.37;23.40;;;10.30;54.70;;;;;;5032794;28;46476;-64
2022/03/17 11:21:17;;;;;;;35.10;23.60;;;10.30;54.70;;;;;;5029796;28;48301;-65
2022/03/17 11:23:56;;;;;;;39.27;25.43;;;10.30;54.30;;;;;;5031461;28;46707;-63
2022/03/17 11:26:27;;;;;;;43.33;28.33;;;10.50;54.00;;;;;;5032440;28;46377;-63
2022/03/17 11:29:02;;;;;;;39.80;25.83;;;10.30;54.40;;;;;;5031424;28;46533;-64
2022/03/17 11:31:29;;;;;;;45.30;29.97;;;10.20;54.40;;;;;;5029382;28;46653;-63
2022/03/17 11:33:59;;;;;;;44.47;27.57;;;10.00;54.80;;;;;;5031302;28;46779;-63
2022/03/17 11:36:25;;;;;;;41.73;26.87;;;9.90;56.10;;;;;;5029238;28;46455;-64
2022/03/17 11:39:02;;;;;;;42.90;27.47;;;9.90;55.80;;;;;;5025322;28;46736;-63
2022/03/17 11:41:30;;;;;;;42.43;27.00;;;10.00;54.60;;;;;;5024827;28;48060;-64
2022/03/17 11:43:56;;;;;;;38.73;25.93;;;9.80;56.80;;;;;;5031931;28;46418;-63
2022/03/17 11:46:37;;;;;;;41.83;26.67;;;9.90;56.00;;;;;;5039632;28;45806;-64
2022/03/17 11:49:23;;;;;;;49.33;29.30;;;10.00;54.40;;;;;;5038465;28;46538;-64
2022/03/17 11:51:53;;;;;;;41.57;26.60;;;10.10;54.40;;;;;;5035236;28;47047;-64
2022/03/17 11:54:18;;;;;;;42.77;26.47;;;10.00;54.30;;;;;;5040647;28;46295;-64
2022/03/17 11:56:45;;;;;;;44.20;27.93;;;10.10;54.20;;;;;;5029648;28;46398;-64
2022/03/17 11:59:18;;;;;;;49.33;28.67;;;10.20;54.20;;;;;;5032485;28;46416;-63
2022/03/17 12:01:47;;;;;;;40.40;26.73;;;10.30;54.10;;;;;;5027124;28;46613;-65
2022/03/17 12:04:30;;;;;;;44.37;28.23;;;10.40;53.60;;;;;;5028204;28;46316;-64
2022/03/17 12:07:09;;;;;;;44.33;27.60;;;10.40;53.70;;;;;;5028994;28;46490;-63
2022/03/17 12:09:36;;;;;;;42.00;27.17;;;10.30;53.80;;;;;;5025328;28;46425;-64
2022/03/17 12:12:04;;;;;;;49.03;27.53;;;10.30;54.10;;;;;;5031691;28;47089;-64
2022/03/17 12:14:29;;;;;;;44.90;27.20;;;10.30;53.90;;;;;;5034793;28;46406;-64
2022/03/17 12:17:02;;;;;;;43.10;27.33;;;10.40;53.70;;;;;;5031821;28;46722;-64
2022/03/17 12:19:40;;;;;;;40.23;26.80;;;10.30;53.80;;;;;;5032893;28;46518;-64
2022/03/17 12:22:10;;;;;;;44.87;26.40;;;10.30;53.80;;;;;;5033190;28;47512;-64
2022/03/17 12:24:50;;;;;;;41.83;27.10;;;10.30;53.70;;;;;;5030017;28;46486;-64
2022/03/17 12:27:30;;;;;;;49.30;27.87;;;10.40;53.70;;;;;;5030248;28;46343;-64
2022/03/17 12:30:03;;;;;;;46.03;27.77;;;10.50;53.50;;;;;;5032819;28;46534;-64
2022/03/17 12:32:40;;;;;;;40.80;26.30;;;10.50;53.50;;;;;;5028760;28;46475;-65
2022/03/17 12:35:11;;;;;;;45.13;25.80;;;10.70;53.20;;;;;;5031676;28;46313;-64
2022/03/17 12:37:38;;;;;;;41.07;26.20;;;10.80;52.40;;;;;;5032093;28;46455;-64
2022/03/17 12:40:07;;;;;;;47.13;28.03;;;10.90;52.50;;;;;;5034549;28;45894;-65
2022/03/17 12:42:41;;;;;;;42.97;27.47;;;10.80;52.40;;;;;;5030214;28;48190;-65
2022/03/17 12:45:08;;;;;;;41.50;25.40;;;10.60;53.30;;;;;;5024031;28;46451;-64
2022/03/17 12:47:36;;;;;;;41.50;24.80;;;10.40;53.40;;;;;;5029825;28;46353;-64
2022/03/17 12:50:06;;;;;;;44.17;26.50;;;10.40;53.70;;;;;;5029260;28;46625;-64
2022/03/17 12:52:32;;;;;;;41.40;26.20;;;10.60;53.30;;;;;;5026456;28;46477;-65
2022/03/17 12:55:01;;;;;;;43.90;28.70;;;10.70;53.00;;;;;;5033953;28;45774;-65